Time;durP1;ratioP1;P1;durP2;ratioP2;P2;SDS_P1;SDS_P2;PMS_P1;PMS_P2;Temp;Humidity;BMP_temperature;BMP_pressure;BME280_temperature;BME280_humidity;BME280_pressure;Samples;Min_cycle;Max_cycle;Signal;HPM_P1;HPM_P2
2021/07/19 00:01:02;;;;;;;4.30;3.90;;;20.40;99.90;;;;;;5040377;28;20447;-85
2021/07/19 00:03:29;;;;;;;5.30;4.40;;;20.30;99.90;;;;;;5039192;28;20471;-85
2021/07/19 00:05:55;;;;;;;5.20;3.70;;;20.30;99.90;;;;;;5040132;28;20467;-86
2021/07/19 00:08:22;;;;;;;3.57;3.27;;;20.40;99.90;;;;;;5040359;28;20451;-86
2021/07/19 00:10:50;;;;;;;6.00;3.60;;;20.30;99.90;;;;;;5039014;28;20490;-85
2021/07/19 00:13:17;;;;;;;6.87;3.70;;;20.30;99.90;;;;;;5039122;28;20506;-85
2021/07/19 00:15:44;;;;;;;4.87;4.47;;;20.30;99.90;;;;;;5039133;28;21103;-85
2021/07/19 00:18:11;;;;;;;4.80;4.30;;;20.00;99.90;;;;;;5039347;28;20483;-85
2021/07/19 00:20:37;;;;;;;4.20;3.87;;;19.90;99.90;;;;;;5039549;28;20816;-84
2021/07/19 00:23:04;;;;;;;6.07;3.90;;;20.00;99.90;;;;;;5039225;28;20549;-84
2021/07/19 00:25:31;;;;;;;5.90;4.70;;;20.00;99.90;;;;;;5038721;28;20517;-85
2021/07/19 00:27:59;;;;;;;5.60;4.10;;;19.90;99.90;;;;;;5039474;28;20501;-86
2021/07/19 00:30:26;;;;;;;5.50;4.33;;;19.90;99.90;;;;;;5041410;28;20501;-86
2021/07/19 00:32:53;;;;;;;7.43;4.50;;;19.60;99.90;;;;;;5039553;28;20475;-85
2021/07/19 00:35:19;;;;;;;6.33;4.90;;;19.80;99.90;;;;;;5039991;28;20540;-85
2021/07/19 00:37:46;;;;;;;7.00;4.57;;;19.50;99.90;;;;;;5039470;28;20482;-85
2021/07/19 00:40:16;;;;;;;8.10;4.60;;;19.40;99.90;;;;;;5038960;28;20868;-85
2021/07/19 00:42:46;;;;;;;7.97;4.63;;;19.50;99.90;;;;;;5038858;28;20475;-86
2021/07/19 00:45:16;;;;;;;5.07;4.57;;;19.40;99.90;;;;;;5038578;28;20543;-85
2021/07/19 00:47:44;;;;;;;10.77;6.07;;;19.40;99.90;;;;;;5039674;28;20460;-84
2021/07/19 00:50:12;;;;;;;7.80;5.60;;;19.30;99.90;;;;;;5039629;28;20451;-84
2021/07/19 00:52:39;;;;;;;7.80;4.73;;;19.10;99.90;;;;;;5039722;28;20471;-84
2021/07/19 00:55:08;;;;;;;7.80;5.10;;;19.20;99.90;;;;;;5039121;28;20482;-85
2021/07/19 00:57:37;;;;;;;7.63;5.37;;;19.70;99.90;;;;;;5038698;28;21044;-85
2021/07/19 01:00:06;;;;;;;7.50;4.80;;;19.50;99.90;;;;;;5038750;28;20432;-85
2021/07/19 01:02:36;;;;;;;5.60;5.10;;;19.40;99.90;;;;;;5044589;28;20524;-84
2021/07/19 01:05:04;;;;;;;10.67;5.67;;;19.40;99.90;;;;;;5045614;28;20443;-85
2021/07/19 01:07:32;;;;;;;7.73;5.93;;;19.20;99.90;;;;;;5039710;28;20482;-85
2021/07/19 01:09:59;;;;;;;5.50;4.77;;;19.00;99.90;;;;;;5039293;28;20442;-84
2021/07/19 01:12:26;;;;;;;8.03;5.00;;;19.00;99.90;;;;;;5039300;28;20470;-86
2021/07/19 01:14:53;;;;;;;7.83;5.43;;;19.10;99.90;;;;;;5037940;28;20962;-85
2021/07/19 01:17:19;;;;;;;7.60;5.03;;;19.00;99.90;;;;;;5038840;28;20447;-84
2021/07/19 01:19:50;;;;;;;8.23;5.17;;;18.90;99.90;;;;;;5039347;28;20450;-86
2021/07/19 01:22:48;;;;;;;9.00;5.60;;;19.10;99.90;;;;;;5038824;28;20483;-86
2021/07/19 01:25:28;;;;;;;7.10;5.57;;;18.90;99.90;;;;;;5038650;28;20903;-85
2021/07/19 01:28:05;;;;;;;6.40;5.40;;;18.80;99.90;;;;;;5039083;28;20432;-86
2021/07/19 01:30:36;;;;;;;6.30;5.20;;;18.40;99.90;;;;;;5038899;28;20439;-84
2021/07/19 01:33:05;;;;;;;7.93;5.47;;;18.60;99.90;;;;;;5039493;28;20475;-83
2021/07/19 01:35:35;;;;;;;9.07;5.53;;;18.70;99.90;;;;;;5039530;28;20505;-84
2021/07/19 01:38:02;;;;;;;11.10;6.30;;;18.70;99.90;;;;;;5038153;28;20458;-84
2021/07/19 01:40:29;;;;;;;9.60;6.10;;;18.60;99.90;;;;;;5039630;28;20455;-85
2021/07/19 01:42:58;;;;;;;6.23;5.63;;;18.70;99.90;;;;;;5041831;28;20459;-85
2021/07/19 01:45:25;;;;;;;7.13;5.87;;;18.60;99.90;;;;;;5039265;28;20435;-85
2021/07/19 01:47:53;;;;;;;8.10;6.17;;;18.60;99.90;;;;;;5039173;28;20511;-84
2021/07/19 01:50:20;;;;;;;8.80;5.80;;;18.30;99.90;;;;;;5039814;28;20479;-84
2021/07/19 01:52:48;;;;;;;5.83;5.30;;;18.50;99.90;;;;;;5046481;28;20467;-84
2021/07/19 01:55:15;;;;;;;8.87;6.63;;;18.60;99.90;;;;;;5044311;28;20849;-84
2021/07/19 01:57:42;;;;;;;10.23;6.90;;;18.50;99.90;;;;;;5040916;28;20953;-84
2021/07/19 02:00:10;;;;;;;10.00;6.90;;;18.40;99.90;;;;;;5042442;28;20451;-85
2021/07/19 02:02:37;;;;;;;9.53;6.40;;;18.10;99.90;;;;;;5043260;28;20493;-84
2021/07/19 02:05:10;;;;;;;7.70;5.40;;;18.20;99.90;;;;;;5045468;28;20801;-85
2021/07/19 02:07:39;;;;;;;9.80;6.00;;;18.30;99.90;;;;;;5043012;28;20458;-84
2021/07/19 02:10:07;;;;;;;7.60;6.30;;;18.30;99.90;;;;;;5042098;28;20471;-84
2021/07/19 02:12:36;;;;;;;9.47;6.10;;;18.10;99.90;;;;;;5042363;28;20477;-84
2021/07/19 02:15:06;;;;;;;8.77;5.87;;;18.00;99.90;;;;;;5043162;28;20510;-84
2021/07/19 02:17:35;;;;;;;8.50;6.17;;;17.70;99.90;;;;;;5042054;28;20428;-85
2021/07/19 02:20:02;;;;;;;9.63;7.47;;;17.70;99.90;;;;;;5042442;28;20478;-85
2021/07/19 02:22:31;;;;;;;9.70;6.30;;;17.60;99.90;;;;;;5042651;28;21048;-84
2021/07/19 02:24:57;;;;;;;12.10;7.00;;;17.60;99.90;;;;;;5041621;28;20460;-85
2021/07/19 02:27:25;;;;;;;12.90;6.70;;;17.80;99.90;;;;;;5043052;28;20477;-84
2021/07/19 02:29:52;;;;;;;7.13;5.23;;;17.80;99.90;;;;;;5042099;28;20447;-84
2021/07/19 02:32:18;;;;;;;9.30;6.27;;;17.70;99.90;;;;;;5041799;28;20489;-85
2021/07/19 02:34:45;;;;;;;13.50;6.73;;;17.70;99.90;;;;;;5042230;28;20479;-85
2021/07/19 02:37:12;;;;;;;8.73;5.97;;;17.50;99.90;;;;;;5043110;28;20479;-85
2021/07/19 02:39:41;;;;;;;10.13;6.20;;;17.50;99.90;;;;;;5043384;28;20451;-85
2021/07/19 02:42:09;;;;;;;9.90;5.80;;;17.50;99.90;;;;;;5043044;28;20831;-84
2021/07/19 02:44:37;;;;;;;9.33;6.63;;;17.50;99.90;;;;;;5043117;28;20481;-85
2021/07/19 02:47:05;;;;;;;7.33;5.50;;;17.30;99.90;;;;;;5042988;28;20965;-85
2021/07/19 02:49:32;;;;;;;10.17;5.90;;;17.20;99.90;;;;;;5041748;28;20485;-85
2021/07/19 02:52:01;;;;;;;26.83;15.63;;;17.30;99.90;;;;;;5041649;28;20521;-85
2021/07/19 02:54:27;;;;;;;11.53;6.47;;;17.30;99.90;;;;;;5040254;28;20461;-85
2021/07/19 02:56:58;;;;;;;6.57;5.97;;;17.20;99.90;;;;;;5039965;28;20482;-85
2021/07/19 02:59:24;;;;;;;8.90;5.17;;;17.10;99.90;;;;;;5040625;28;20921;-85
2021/07/19 03:01:54;;;;;;;11.03;6.33;;;17.30;99.90;;;;;;5042159;28;20446;-84
2021/07/19 03:04:22;;;;;;;13.03;7.50;;;17.20;99.90;;;;;;5042378;28;20453;-85
2021/07/19 03:06:50;;;;;;;8.90;5.30;;;17.30;99.90;;;;;;5041448;28;20496;-85
2021/07/19 03:09:19;;;;;;;8.83;5.00;;;17.00;99.90;;;;;;5040875;28;20478;-85
2021/07/19 03:11:49;;;;;;;15.63;9.50;;;16.90;99.90;;;;;;5042991;28;20456;-86
2021/07/19 03:14:20;;;;;;;10.77;6.07;;;17.10;99.90;;;;;;5040769;28;20453;-84
2021/07/19 03:16:47;;;;;;;10.53;5.77;;;17.00;99.90;;;;;;5041097;28;20231;-85
2021/07/19 03:19:17;;;;;;;13.70;10.07;;;17.10;99.90;;;;;;5040889;28;20470;-85
2021/07/19 03:21:45;;;;;;;9.80;5.30;;;17.00;99.90;;;;;;5041943;28;20451;-85
2021/07/19 03:24:14;;;;;;;13.20;6.63;;;16.80;99.90;;;;;;5077277;22;20513;-80
2021/07/19 03:26:42;;;;;;;7.77;5.40;;;17.00;99.90;;;;;;5056573;28;20486;-80
2021/07/19 03:29:11;;;;;;;11.70;5.23;;;17.00;99.90;;;;;;5057039;28;20473;-78
2021/07/19 03:31:40;;;;;;;12.63;5.47;;;17.00;99.90;;;;;;5056068;28;20857;-79
2021/07/19 03:34:10;;;;;;;13.30;5.37;;;16.80;99.90;;;;;;5056360;28;20485;-79
2021/07/19 03:36:37;;;;;;;12.37;5.60;;;16.60;99.90;;;;;;5056205;28;21075;-79
2021/07/19 03:39:06;;;;;;;9.90;4.47;;;16.70;99.90;;;;;;5056161;28;20523;-80
2021/07/19 03:41:33;;;;;;;9.95;5.53;;;16.60;99.90;;;;;;5055656;28;20475;-79
2021/07/19 03:44:02;;;;;;;13.77;5.63;;;16.40;99.90;;;;;;5056446;28;20228;-79
2021/07/19 03:46:29;;;;;;;20.97;7.30;;;16.50;99.90;;;;;;5057440;28;20442;-78
2021/07/19 03:48:57;;;;;;;12.27;4.47;;;16.50;99.90;;;;;;5057033;28;20483;-78
2021/07/19 03:51:28;;;;;;;16.00;4.77;;;16.60;99.90;;;;;;5062388;28;20476;-77
2021/07/19 03:53:55;;;;;;;8.70;5.20;;;16.50;99.90;;;;;;5070020;28;20462;-78
2021/07/19 03:56:21;;;;;;;7.20;4.80;;;16.50;99.90;;;;;;5071494;28;20451;-77
2021/07/19 03:58:48;;;;;;;13.63;5.60;;;16.60;99.90;;;;;;5064919;28;20438;-79
2021/07/19 04:01:16;;;;;;;11.53;5.07;;;16.60;99.90;;;;;;5056322;28;20478;-79
2021/07/19 04:03:47;;;;;;;10.60;4.93;;;16.30;99.90;;;;;;5058478;28;20471;-77
2021/07/19 04:06:18;;;;;;;9.67;4.77;;;16.40;99.90;;;;;;5057042;28;20836;-79
2021/07/19 04:08:45;;;;;;;13.47;4.73;;;16.20;99.90;;;;;;5056778;28;20470;-80
2021/07/19 04:11:14;;;;;;;10.52;4.47;;;16.20;99.90;;;;;;5055756;28;20537;-80
2021/07/19 04:13:42;;;;;;;6.80;4.33;;;16.30;99.90;;;;;;5056353;28;20597;-79
2021/07/19 04:16:09;;;;;;;12.60;4.90;;;16.40;99.90;;;;;;5056397;28;20450;-78
2021/07/19 04:18:36;;;;;;;16.83;6.20;;;16.50;99.90;;;;;;5056847;28;20481;-80
2021/07/19 04:21:03;;;;;;;10.73;4.70;;;16.50;99.90;;;;;;5056201;28;20500;-79
2021/07/19 04:23:32;;;;;;;12.63;4.70;;;16.50;99.90;;;;;;5056057;28;20902;-80
2021/07/19 04:25:59;;;;;;;8.37;4.40;;;16.40;99.90;;;;;;5055774;28;20524;-79
2021/07/19 04:28:26;;;;;;;6.70;4.60;;;16.30;99.90;;;;;;5060297;28;20503;-77
2021/07/19 04:30:53;;;;;;;13.17;4.67;;;16.10;99.90;;;;;;5060373;28;20454;-77
2021/07/19 04:33:22;;;;;;;7.50;4.60;;;16.30;99.90;;;;;;5060747;28;20457;-78
2021/07/19 04:35:49;;;;;;;9.00;4.03;;;16.40;99.90;;;;;;5059355;28;20551;-78
2021/07/19 04:38:17;;;;;;;13.23;5.20;;;16.30;99.90;;;;;;5059931;28;20446;-78
2021/07/19 04:40:47;;;;;;;10.10;4.30;;;16.20;99.90;;;;;;5058955;28;20450;-77
2021/07/19 04:43:15;;;;;;;10.80;4.67;;;16.20;99.90;;;;;;5056567;28;20520;-78
2021/07/19 04:45:42;;;;;;;15.00;4.53;;;16.20;99.90;;;;;;5056844;28;20482;-78
2021/07/19 04:48:09;;;;;;;14.17;4.77;;;16.30;99.90;;;;;;5056068;28;20449;-78
2021/07/19 04:50:35;;;;;;;9.43;4.07;;;16.40;99.90;;;;;;5055399;28;20474;-78
2021/07/19 04:53:02;;;;;;;8.23;5.10;;;16.40;99.90;;;;;;5055603;28;20466;-79
2021/07/19 04:55:30;;;;;;;11.53;4.00;;;16.30;99.90;;;;;;5055703;28;20662;-79
2021/07/19 04:58:00;;;;;;;9.77;4.70;;;16.60;99.90;;;;;;5057752;28;20461;-77
2021/07/19 05:00:27;;;;;;;12.10;5.35;;;16.40;99.90;;;;;;5060067;28;20450;-77
2021/07/19 05:02:55;;;;;;;7.30;4.73;;;16.40;99.90;;;;;;5060206;28;20219;-77
2021/07/19 05:05:25;;;;;;;7.33;4.93;;;16.20;99.90;;;;;;5058849;28;20450;-78
2021/07/19 05:07:52;;;;;;;7.53;4.77;;;16.00;99.90;;;;;;5060162;28;20442;-77
2021/07/19 05:10:20;;;;;;;6.07;4.10;;;16.00;99.90;;;;;;5056774;28;20533;-79
2021/07/19 05:12:49;;;;;;;13.20;4.93;;;16.20;99.90;;;;;;5056445;28;20519;-79
2021/07/19 05:15:18;;;;;;;8.27;4.30;;;16.20;99.90;;;;;;5055550;28;20459;-79
2021/07/19 05:17:45;;;;;;;9.63;4.10;;;16.20;99.90;;;;;;5057466;28;20473;-80
2021/07/19 05:20:13;;;;;;;16.53;5.63;;;16.20;99.90;;;;;;5055496;28;20486;-79
2021/07/19 05:22:44;;;;;;;8.97;4.47;;;16.40;99.90;;;;;;5054850;28;20513;-79
2021/07/19 05:25:13;;;;;;;14.50;4.97;;;16.20;99.90;;;;;;5055621;28;20458;-79
2021/07/19 05:27:48;;;;;;;12.23;5.00;;;16.20;99.90;;;;;;5055101;28;20512;-80
2021/07/19 05:30:14;;;;;;;8.60;5.00;;;16.30;99.90;;;;;;5055513;28;20433;-78
2021/07/19 05:32:42;;;;;;;8.50;4.85;;;16.40;99.90;;;;;;5055127;28;20556;-79
2021/07/19 05:35:10;;;;;;;10.97;4.90;;;16.30;99.90;;;;;;5058574;28;20200;-79
2021/07/19 05:37:36;;;;;;;20.80;5.77;;;16.20;99.90;;;;;;5058871;28;20446;-80
2021/07/19 05:40:03;;;;;;;7.93;4.80;;;16.00;99.90;;;;;;5059641;28;20450;-80
2021/07/19 05:42:30;;;;;;;12.03;5.03;;;16.20;99.90;;;;;;5062127;28;20466;-78
2021/07/19 05:44:56;;;;;;;8.83;6.00;;;16.40;99.90;;;;;;5064087;28;20485;-78
2021/07/19 05:47:23;;;;;;;13.70;4.83;;;16.50;99.90;;;;;;5062590;28;20482;-79
2021/07/19 05:49:51;;;;;;;13.27;4.73;;;16.50;99.90;;;;;;5070871;28;20453;-79
2021/07/19 05:52:17;;;;;;;9.57;5.90;;;16.50;99.90;;;;;;5060359;28;20450;-79
2021/07/19 05:54:44;;;;;;;18.67;6.07;;;16.40;99.90;;;;;;5058840;28;20466;-79
2021/07/19 05:57:11;;;;;;;15.20;7.83;;;16.20;99.90;;;;;;5058606;28;20477;-79
2021/07/19 05:59:37;;;;;;;7.33;4.47;;;16.40;99.90;;;;;;5058988;28;20477;-79
2021/07/19 06:02:04;;;;;;;16.90;5.80;;;16.40;99.90;;;;;;5058816;28;20454;-79
2021/07/19 06:04:31;;;;;;;13.07;6.20;;;16.40;99.90;;;;;;5058623;28;20466;-77
2021/07/19 06:06:59;;;;;;;8.30;4.93;;;16.50;99.90;;;;;;5060179;28;20473;-80
2021/07/19 06:09:25;;;;;;;13.60;6.27;;;16.70;99.90;;;;;;5058216;28;20441;-79
2021/07/19 06:11:57;;;;;;;10.60;7.20;;;16.70;99.90;;;;;;5061915;28;20515;-80
2021/07/19 06:14:24;;;;;;;8.80;5.63;;;16.60;99.90;;;;;;5059945;28;20519;-79
2021/07/19 06:16:50;;;;;;;11.90;5.77;;;16.30;99.90;;;;;;5060907;28;20481;-78
2021/07/19 06:19:17;;;;;;;9.67;5.07;;;16.60;99.90;;;;;;5060305;28;20580;-79
2021/07/19 06:21:44;;;;;;;9.93;5.60;;;16.90;99.90;;;;;;5059689;28;20482;-78
2021/07/19 06:24:12;;;;;;;8.40;4.70;;;16.80;99.90;;;;;;5059729;28;20482;-78
2021/07/19 06:26:39;;;;;;;9.83;4.53;;;16.70;99.90;;;;;;5060146;28;20478;-78
2021/07/19 06:29:06;;;;;;;10.83;6.27;;;16.80;99.90;;;;;;5060062;28;20442;-79
2021/07/19 06:31:33;;;;;;;12.37;4.60;;;16.80;99.90;;;;;;5060434;28;20450;-78
2021/07/19 06:33:59;;;;;;;9.00;5.00;;;17.00;99.90;;;;;;5061001;28;20466;-78
2021/07/19 06:36:26;;;;;;;12.20;6.78;;;17.00;99.90;;;;;;5061237;28;20450;-79
2021/07/19 06:38:53;;;;;;;12.87;6.80;;;17.00;99.90;;;;;;5061481;28;20472;-77
2021/07/19 06:41:21;;;;;;;11.63;5.67;;;17.10;99.90;;;;;;5061160;28;20485;-80
2021/07/19 06:43:47;;;;;;;11.38;5.60;;;17.40;99.90;;;;;;5060972;28;20493;-79
2021/07/19 06:46:14;;;;;;;8.80;5.43;;;17.30;99.90;;;;;;5060251;28;20239;-79
2021/07/19 06:48:40;;;;;;;8.10;5.70;;;17.40;99.90;;;;;;5059462;28;20500;-79
2021/07/19 06:51:07;;;;;;;10.52;6.82;;;17.30;99.90;;;;;;5059146;28;20448;-79
2021/07/19 06:53:34;;;;;;;8.40;6.43;;;17.40;99.90;;;;;;5058862;28;20693;-78
2021/07/19 06:56:01;;;;;;;11.57;5.80;;;17.50;99.90;;;;;;5059787;28;20450;-79
2021/07/19 06:58:29;;;;;;;12.97;7.00;;;17.40;99.90;;;;;;5058985;28;20477;-77
2021/07/19 07:00:55;;;;;;;10.00;6.00;;;17.20;99.90;;;;;;5060173;28;20450;-77
2021/07/19 07:03:22;;;;;;;11.23;7.10;;;17.20;99.90;;;;;;5062507;28;20454;-77
2021/07/19 07:05:49;;;;;;;12.60;6.63;;;17.30;99.90;;;;;;5063725;28;20836;-77
2021/07/19 07:08:15;;;;;;;11.47;6.70;;;17.20;99.90;;;;;;5061048;28;20524;-80
2021/07/19 07:10:42;;;;;;;8.83;5.53;;;17.50;99.90;;;;;;5057863;28;20472;-78
2021/07/19 07:13:09;;;;;;;19.37;7.53;;;17.70;99.90;;;;;;5058843;28;20473;-78
2021/07/19 07:15:38;;;;;;;12.50;6.53;;;17.70;99.90;;;;;;5058188;28;20537;-79
2021/07/19 07:18:06;;;;;;;8.90;5.73;;;17.80;99.90;;;;;;5058681;28;20442;-78
2021/07/19 07:20:33;;;;;;;9.53;6.90;;;17.70;99.90;;;;;;5058290;28;20456;-77
2021/07/19 07:22:59;;;;;;;8.80;5.73;;;17.60;99.90;;;;;;5057587;28;21016;-79
2021/07/19 07:25:26;;;;;;;14.60;5.93;;;18.00;99.90;;;;;;5058598;28;20450;-80
2021/07/19 07:27:53;;;;;;;9.40;5.47;;;17.80;99.90;;;;;;5058964;28;20478;-80
2021/07/19 07:30:24;;;;;;;13.80;6.80;;;17.90;99.90;;;;;;5058009;28;20461;-79
2021/07/19 07:32:52;;;;;;;8.33;6.53;;;18.10;99.90;;;;;;5057182;28;20474;-77
2021/07/19 07:35:19;;;;;;;9.40;5.63;;;18.00;99.90;;;;;;5058628;28;20857;-78
2021/07/19 07:37:46;;;;;;;9.73;6.87;;;18.10;99.90;;;;;;5058340;28;20497;-78
2021/07/19 07:40:16;;;;;;;13.33;6.77;;;18.10;99.90;;;;;;5058331;28;20450;-78
2021/07/19 07:42:43;;;;;;;15.70;7.40;;;18.10;99.90;;;;;;5058266;28;20521;-80
2021/07/19 07:45:11;;;;;;;11.47;7.07;;;18.10;99.90;;;;;;5056055;28;20446;-80
2021/07/19 07:47:41;;;;;;;13.70;6.47;;;17.90;99.90;;;;;;5057982;28;20521;-80
2021/07/19 07:50:10;;;;;;;13.57;6.87;;;18.10;99.90;;;;;;5059782;28;20442;-83
2021/07/19 07:52:37;;;;;;;10.83;6.53;;;18.30;99.90;;;;;;5063872;28;20470;-82
2021/07/19 07:55:04;;;;;;;11.03;6.20;;;18.30;99.90;;;;;;5073586;28;20447;-83
2021/07/19 07:57:31;;;;;;;12.63;6.10;;;18.50;99.90;;;;;;5076172;28;20454;-84
2021/07/19 07:59:57;;;;;;;8.00;5.93;;;18.60;99.90;;;;;;5076208;28;20445;-84
2021/07/19 08:02:24;;;;;;;10.43;7.20;;;18.30;99.90;;;;;;5078088;28;20446;-84
2021/07/19 08:04:53;;;;;;;15.73;6.63;;;18.40;99.90;;;;;;5076272;28;20454;-82
2021/07/19 08:07:21;;;;;;;14.43;7.37;;;18.90;99.90;;;;;;5078278;28;20490;-82
2021/07/19 08:09:48;;;;;;;19.30;7.20;;;18.50;99.90;;;;;;5077899;28;20446;-83
2021/07/19 08:12:15;;;;;;;9.17;6.00;;;18.60;99.90;;;;;;5078333;28;20446;-82
2021/07/19 08:14:41;;;;;;;11.77;6.10;;;18.70;99.90;;;;;;5077545;28;20468;-82
2021/07/19 08:17:08;;;;;;;9.20;6.47;;;18.90;99.90;;;;;;5077545;28;20457;-84
2021/07/19 08:19:34;;;;;;;16.20;7.10;;;19.00;99.90;;;;;;5077069;28;20438;-84
2021/07/19 08:22:01;;;;;;;8.90;7.07;;;19.00;99.90;;;;;;5077019;28;20465;-82
2021/07/19 08:24:31;;;;;;;10.40;6.93;;;19.00;99.90;;;;;;5073403;28;20477;-83
2021/07/19 08:26:58;;;;;;;20.00;12.20;;;19.20;99.90;;;;;;5074316;28;20572;-83
2021/07/19 08:29:25;;;;;;;13.20;8.07;;;19.20;99.90;;;;;;5069767;28;20496;-83
2021/07/19 08:31:51;;;;;;;9.40;7.27;;;19.30;99.90;;;;;;5068375;28;20813;-83
2021/07/19 08:34:18;;;;;;;9.67;5.97;;;19.20;99.90;;;;;;5064136;28;20492;-83
2021/07/19 08:36:45;;;;;;;10.50;6.57;;;18.90;99.90;;;;;;5064861;28;20859;-84
2021/07/19 08:39:11;;;;;;;9.03;6.10;;;19.10;99.90;;;;;;5059814;28;20806;-83
2021/07/19 08:41:40;;;;;;;8.93;5.70;;;19.20;99.90;;;;;;5059340;28;20450;-83
2021/07/19 08:44:10;;;;;;;7.50;6.07;;;19.10;99.90;;;;;;5059114;28;20477;-83
2021/07/19 08:46:36;;;;;;;11.57;7.70;;;19.20;99.90;;;;;;5058997;28;20460;-83
2021/07/19 08:49:05;;;;;;;9.00;6.27;;;19.10;99.90;;;;;;5058731;28;20445;-83
2021/07/19 08:51:32;;;;;;;7.87;5.90;;;19.10;99.90;;;;;;5060833;28;20446;-83
2021/07/19 08:54:01;;;;;;;8.40;5.90;;;19.40;99.90;;;;;;5061381;28;20465;-85
2021/07/19 08:56:28;;;;;;;9.67;6.73;;;19.30;99.90;;;;;;5059396;28;20446;-82
2021/07/19 08:58:56;;;;;;;11.83;7.80;;;19.20;99.90;;;;;;5059319;28;20450;-83
2021/07/19 09:01:23;;;;;;;9.03;6.07;;;19.00;99.90;;;;;;5058799;28;20431;-82
2021/07/19 09:03:50;;;;;;;7.40;6.30;;;18.90;99.90;;;;;;5059517;28;20466;-81
2021/07/19 09:06:17;;;;;;;9.33;6.17;;;18.90;99.90;;;;;;5058139;28;20507;-81
2021/07/19 09:08:49;;;;;;;9.70;6.50;;;18.80;99.90;;;;;;5060669;28;20509;-82
2021/07/19 09:11:15;;;;;;;7.87;6.07;;;18.60;99.90;;;;;;5068173;28;20441;-83
2021/07/19 09:13:58;;;;;;;8.70;6.33;;;18.80;99.90;;;;;;5063748;28;20470;-82
2021/07/19 09:16:26;;;;;;;8.63;7.03;;;18.80;99.90;;;;;;5063805;28;20458;-83
2021/07/19 09:19:06;;;;;;;8.30;5.70;;;18.90;99.90;;;;;;5064949;28;20449;-82
2021/07/19 09:21:35;;;;;;;9.67;6.37;;;18.90;99.90;;;;;;5063740;28;20445;-81
2021/07/19 09:24:14;;;;;;;8.93;6.17;;;19.10;99.90;;;;;;5078355;22;20524;-82
2021/07/19 09:27:10;;;;;;;8.50;5.90;;;19.70;99.90;;;;;;5052770;28;20442;-82
2021/07/19 09:29:47;;;;;;;10.03;6.30;;;19.20;99.90;;;;;;5056486;28;20431;-82
2021/07/19 09:32:21;;;;;;;6.73;5.07;;;19.20;99.90;;;;;;5051214;28;20442;-82
2021/07/19 09:34:57;;;;;;;10.07;6.17;;;19.20;99.90;;;;;;5051971;28;20526;-82
2021/07/19 09:37:36;;;;;;;7.63;5.80;;;19.30;99.90;;;;;;5047460;28;20477;-83
2021/07/19 09:40:30;;;;;;;9.13;6.27;;;19.40;99.90;;;;;;5051949;28;20419;-83
2021/07/19 09:48:48;;;;;;;6.87;5.23;;;;;;;;;;5038686;28;20485;-83
2021/07/19 09:51:22;;;;;;;8.10;5.53;;;;;;;;;;5049461;28;20447;-83
2021/07/19 09:53:53;;;;;;;8.37;4.97;;;18.80;99.90;;;;;;5042462;28;20483;-83
2021/07/19 09:56:26;;;;;;;9.33;5.37;;;18.90;99.90;;;;;;5042699;28;20428;-83
2021/07/19 09:59:09;;;;;;;9.73;6.40;;;18.90;99.90;;;;;;5044309;28;20416;-84
2021/07/19 10:01:38;;;;;;;8.50;5.77;;;18.90;99.90;;;;;;5042051;28;20447;-84
2021/07/19 10:04:06;;;;;;;8.00;6.23;;;19.50;99.90;;;;;;5040763;28;20509;-84
2021/07/19 10:06:33;;;;;;;11.00;5.67;;;19.10;99.90;;;;;;5043780;28;20758;-84
2021/07/19 10:09:01;;;;;;;6.00;5.00;;;19.10;99.90;;;;;;5048758;28;20466;-83
2021/07/19 10:11:32;;;;;;;8.63;5.13;;;19.10;99.90;;;;;;5043981;28;20442;-84
2021/07/19 10:13:59;;;;;;;7.73;6.03;;;19.00;99.90;;;;;;5039945;28;20514;-83
2021/07/19 10:16:28;;;;;;;8.43;5.83;;;19.00;99.90;;;;;;5042289;28;20447;-84
2021/07/19 10:19:01;;;;;;;8.10;5.70;;;19.30;99.90;;;;;;5044089;28;20439;-83
2021/07/19 10:21:35;;;;;;;6.87;5.47;;;19.60;99.90;;;;;;5042138;28;20478;-83
2021/07/19 10:24:07;;;;;;;6.97;5.60;;;19.60;99.90;;;;;;5039033;28;20936;-83
2021/07/19 10:26:50;;;;;;;11.00;5.73;;;19.70;99.90;;;;;;5040418;28;20929;-83
2021/07/19 10:29:23;;;;;;;10.07;5.60;;;19.30;99.90;;;;;;5038946;28;20483;-83
2021/07/19 10:31:55;;;;;;;7.53;5.50;;;;;;;;;;5041434;28;20435;-83
2021/07/19 10:34:24;;;;;;;7.80;4.90;;;19.30;99.90;;;;;;5039384;28;20467;-83
2021/07/19 10:36:56;;;;;;;6.23;4.50;;;19.20;99.90;;;;;;5040141;28;20451;-83
2021/07/19 10:43:30;;;;;;;6.20;5.60;;;18.90;99.90;;;;;;4951840;22;20481;-83
2021/07/19 10:46:08;;;;;;;6.83;5.60;;;18.80;99.90;;;;;;5001984;28;20461;-83
2021/07/19 10:48:35;;;;;;;9.07;6.90;;;;;;;;;;5060786;28;20470;-82
2021/07/19 10:51:20;;;;;;;13.17;6.70;;;18.80;99.90;;;;;;5060658;28;20537;-83
2021/07/19 10:53:47;;;;;;;7.17;5.30;;;;;;;;;;5060329;28;20835;-83
2021/07/19 10:59:00;;;;;;;6.90;5.20;;;;;;;;;;5057617;28;20450;-83
2021/07/19 11:01:35;;;;;;;6.63;5.53;;;18.60;99.90;;;;;;5060772;28;20460;-83
2021/07/19 11:04:16;;;;;;;8.77;4.88;;;18.60;99.90;;;;;;5061509;28;20533;-83
2021/07/19 11:06:49;;;;;;;6.30;3.93;;;18.70;99.90;;;;;;5059628;28;20284;-83
2021/07/19 11:09:16;;;;;;;9.83;5.57;;;;;;;;;;5059187;28;20478;-83
2021/07/19 11:11:47;;;;;;;8.83;5.77;;;18.90;99.90;;;;;;5058906;28;20936;-83
2021/07/19 11:14:24;;;;;;;10.77;5.03;;;18.70;99.90;;;;;;5059514;28;20470;-83
2021/07/19 11:16:55;;;;;;;7.30;5.20;;;19.00;99.90;;;;;;5059549;28;20438;-82
2021/07/19 11:19:30;;;;;;;8.03;5.20;;;19.10;99.90;;;;;;5060752;28;20480;-83
2021/07/19 11:22:13;;;;;;;4.90;3.70;;;18.70;99.90;;;;;;5069236;28;20437;-82
2021/07/19 11:24:50;;;;;;;7.73;4.50;;;19.00;99.90;;;;;;5064650;28;20980;-83
2021/07/19 11:27:35;;;;;;;6.80;4.73;;;19.00;99.90;;;;;;5069101;28;20446;-84
2021/07/19 11:30:09;;;;;;;6.63;4.03;;;19.10;99.90;;;;;;5066802;28;20438;-84
2021/07/19 11:33:03;;;;;;;8.23;4.50;;;19.00;99.90;;;;;;5063489;28;20449;-84
2021/07/19 11:35:57;;;;;;;6.53;4.53;;;19.10;99.90;;;;;;5023507;28;20674;-84
2021/07/19 11:38:37;;;;;;;7.10;4.33;;;20.50;99.90;;;;;;5052675;28;20489;-84
2021/07/19 11:41:20;;;;;;;6.03;3.40;;;18.80;99.90;;;;;;5060790;28;20437;-84
2021/07/19 11:43:49;;;;;;;6.00;3.70;;;18.70;99.90;;;;;;5060126;28;20465;-84
2021/07/19 11:46:27;;;;;;;7.70;4.50;;;19.10;99.90;;;;;;5063862;28;20450;-84
2021/07/19 11:48:58;;;;;;;7.10;3.83;;;19.00;99.90;;;;;;5065545;28;20504;-84
2021/07/19 11:51:25;;;;;;;4.17;2.90;;;19.00;99.90;;;;;;5060022;28;20433;-85
2021/07/19 11:53:53;;;;;;;7.60;4.10;;;19.20;99.90;;;;;;5060469;28;20557;-84
2021/07/19 11:56:20;;;;;;;6.20;4.40;;;19.10;99.90;;;;;;5072458;28;20442;-84
2021/07/19 11:58:57;;;;;;;6.27;4.10;;;19.30;99.90;;;;;;5068669;28;20454;-85
2021/07/19 12:01:28;;;;;;;6.13;3.83;;;19.40;99.90;;;;;;5060727;28;20461;-84
2021/07/19 12:03:56;;;;;;;5.40;3.90;;;19.60;99.90;;;;;;5061766;28;20526;-82
2021/07/19 12:06:23;;;;;;;6.50;4.30;;;19.90;99.90;;;;;;5062032;28;20525;-84
2021/07/19 12:09:00;;;;;;;3.90;3.40;;;19.50;99.90;;;;;;5059654;28;20518;-84
2021/07/19 12:11:27;;;;;;;4.33;3.70;;;19.70;99.90;;;;;;5062490;28;20430;-84
2021/07/19 12:13:58;;;;;;;4.23;3.50;;;19.80;99.90;;;;;;5069490;28;20466;-84
2021/07/19 12:16:33;;;;;;;5.43;4.10;;;19.90;99.90;;;;;;5072806;28;20433;-83
2021/07/19 12:19:00;;;;;;;3.37;3.00;;;19.90;99.90;;;;;;5073665;28;20880;-83
2021/07/19 12:21:29;;;;;;;5.20;4.00;;;20.10;99.90;;;;;;5072305;28;20453;-84
2021/07/19 12:23:59;;;;;;;5.00;3.40;;;20.10;99.90;;;;;;5069531;28;20557;-84
2021/07/19 12:26:37;;;;;;;5.33;4.40;;;19.80;99.90;;;;;;5064230;28;20454;-84
2021/07/19 12:29:06;;;;;;;4.33;3.80;;;19.90;99.90;;;;;;5059629;28;20466;-84
2021/07/19 12:31:35;;;;;;;7.80;4.33;;;19.80;99.90;;;;;;5059211;28;20595;-84
2021/07/19 12:34:06;;;;;;;5.10;4.33;;;20.00;99.90;;;;;;5058624;28;20497;-84
2021/07/19 12:36:32;;;;;;;6.30;4.43;;;20.00;99.90;;;;;;5060887;28;20435;-84
2021/07/19 12:39:04;;;;;;;4.90;4.40;;;19.90;99.90;;;;;;5062343;28;20446;-85
2021/07/19 12:41:38;;;;;;;5.63;4.60;;;20.00;99.90;;;;;;5065556;28;20435;-83
2021/07/19 12:44:07;;;;;;;10.40;5.03;;;19.90;99.90;;;;;;5071778;28;20453;-84
2021/07/19 12:46:37;;;;;;;6.20;3.97;;;19.90;99.90;;;;;;5076375;28;20442;-84
2021/07/19 12:49:04;;;;;;;9.10;5.70;;;19.60;99.90;;;;;;5071718;28;20533;-82
2021/07/19 12:51:30;;;;;;;5.20;4.30;;;19.80;99.90;;;;;;5072299;28;20872;-83
2021/07/19 12:54:01;;;;;;;6.07;4.33;;;19.80;99.90;;;;;;5071855;28;20470;-83
2021/07/19 12:56:29;;;;;;;10.17;4.40;;;19.80;99.90;;;;;;5061451;28;20431;-84
2021/07/19 12:58:58;;;;;;;6.82;3.90;;;19.80;99.90;;;;;;5062398;28;20440;-84
2021/07/19 13:01:31;;;;;;;11.63;3.97;;;19.90;99.90;;;;;;5061174;28;20203;-85
2021/07/19 13:04:02;;;;;;;7.23;5.10;;;19.90;99.90;;;;;;5059844;28;20505;-84
2021/07/19 13:06:28;;;;;;;6.10;4.83;;;19.50;99.90;;;;;;5061431;28;20446;-84
2021/07/19 13:08:55;;;;;;;7.47;4.57;;;20.10;99.90;;;;;;5060590;28;20482;-84